Time;durP1;ratioP1;P1;durP2;ratioP2;P2;SDS_P1;SDS_P2;PMS_P1;PMS_P2;Temp;Humidity;BMP_temperature;BMP_pressure;BME280_temperature;BME280_humidity;BME280_pressure;Samples;Min_cycle;Max_cycle;Signal;HPM_P1;HPM_P2
2020/12/17 00:01:07;;;;;;;1.20;0.90;;;;;;;6.11;74.47;95761.00;5065360;28;20184;-78
2020/12/17 00:03:33;;;;;;;1.23;1.00;;;;;;;6.29;73.40;95767.34;5074670;28;20287;-77
2020/12/17 00:05:58;;;;;;;1.17;0.60;;;;;;;6.32;73.47;95763.72;5074414;28;20730;-78
2020/12/17 00:08:23;;;;;;;0.90;0.63;;;;;;;6.39;73.13;95757.16;5056254;28;20647;-78
2020/12/17 00:10:49;;;;;;;1.07;0.60;;;;;;;6.33;73.30;95755.03;5091391;28;20184;-78
2020/12/17 00:13:14;;;;;;;0.40;0.40;;;;;;;6.41;73.37;95750.13;5085144;28;20238;-78
2020/12/17 00:15:39;;;;;;;0.47;0.47;;;;;;;6.41;72.95;95752.69;5090679;28;20563;-78
2020/12/17 00:18:05;;;;;;;0.80;0.60;;;;;;;6.39;72.98;95745.09;5073405;28;20217;-77
2020/12/17 00:20:30;;;;;;;0.50;0.50;;;;;;;6.44;72.85;95744.72;5057801;28;20286;-78
2020/12/17 00:22:55;;;;;;;0.90;0.70;;;;;;;6.38;73.48;95748.59;5079201;28;20231;-78
2020/12/17 00:25:21;;;;;;;0.77;0.70;;;;;;;6.48;72.63;95754.69;5083900;28;20745;-78
2020/12/17 00:27:46;;;;;;;0.87;0.60;;;;;;;6.51;73.03;95749.28;5094646;28;20185;-79
2020/12/17 00:30:13;;;;;;;0.80;0.70;;;;;;;6.50;72.92;95752.81;5088787;28;20192;-79
2020/12/17 00:32:43;;;;;;;0.80;0.50;;;;;;;6.50;73.00;95749.41;5067565;28;20180;-78
2020/12/17 00:35:09;;;;;;;0.70;0.70;;;;;;;6.51;72.81;95741.56;5072026;28;20203;-78
2020/12/17 00:37:36;;;;;;;0.40;0.40;;;;;;;6.44;73.30;95747.28;5092826;28;20294;-78
2020/12/17 00:40:05;;;;;;;0.70;0.60;;;;;;;6.44;73.14;95749.88;5076022;28;20180;-78
2020/12/17 00:42:30;;;;;;;1.07;0.77;;;;;;;6.43;73.45;95748.22;5074024;28;20192;-78
2020/12/17 00:44:55;;;;;;;1.57;0.80;;;;;;;6.38;73.23;95743.44;5092673;28;20204;-78
2020/12/17 00:47:21;;;;;;;2.53;0.93;;;;;;;6.30;73.70;95745.78;5068718;28;20188;-78
2020/12/17 00:49:46;;;;;;;0.77;0.70;;;;;;;6.30;73.64;95744.97;5094047;28;20663;-78
2020/12/17 00:52:11;;;;;;;0.60;0.60;;;;;;;6.25;73.54;95737.56;5059276;28;20639;-77
2020/12/17 00:54:40;;;;;;;0.87;0.70;;;;;;;6.24;73.79;95739.31;5093454;28;20197;-78
2020/12/17 00:57:06;;;;;;;0.80;0.77;;;;;;;6.18;74.24;95746.69;5076477;28;20212;-78
2020/12/17 00:59:32;;;;;;;1.23;0.97;;;;;;;6.17;73.96;95748.44;5059092;28;20187;-77
2020/12/17 01:01:57;;;;;;;0.97;0.90;;;;;;;6.14;74.36;95745.28;5093863;28;20267;-78
2020/12/17 01:04:22;;;;;;;0.97;0.80;;;;;;;6.06;74.33;95752.78;5077061;28;20201;-78
2020/12/17 01:06:47;;;;;;;1.37;0.80;;;;;;;6.15;74.22;95750.34;5073481;28;20180;-78
2020/12/17 01:09:13;;;;;;;0.80;0.60;;;;;;;6.12;74.01;95747.19;5068919;28;20201;-77
2020/12/17 01:11:38;;;;;;;0.80;0.80;;;;;;;6.10;74.34;95746.47;5094018;28;20436;-78
2020/12/17 01:14:04;;;;;;;1.53;0.77;;;;;;;6.05;74.90;95746.00;5058804;28;20200;-78
2020/12/17 01:16:29;;;;;;;1.10;1.00;;;;;;;6.07;74.80;95752.66;5076756;28;20184;-79
2020/12/17 01:18:55;;;;;;;1.00;0.87;;;;;;;6.02;74.91;95752.22;5069675;28;20211;-78
2020/12/17 01:21:20;;;;;;;1.13;0.80;;;;;;;5.99;75.15;95749.84;5063350;28;20189;-78
2020/12/17 01:23:46;;;;;;;1.27;0.80;;;;;;;5.99;74.87;95751.59;5075411;28;20204;-78
2020/12/17 01:26:11;;;;;;;1.30;0.77;;;;;;;5.93;75.01;95753.72;5076748;28;20773;-78
2020/12/17 01:28:37;;;;;;;1.33;1.10;;;;;;;5.89;75.05;95759.97;5087035;28;20203;-78
2020/12/17 01:31:07;;;;;;;1.50;0.97;;;;;;;5.84;75.56;95758.69;5075446;28;20701;-78
2020/12/17 01:33:33;;;;;;;2.23;1.20;;;;;;;5.78;75.66;95764.28;5075110;28;20238;-78
2020/12/17 01:36:05;;;;;;;2.10;1.10;;;;;;;5.76;75.80;95767.00;5093388;28;20582;-78
2020/12/17 01:38:31;;;;;;;1.60;1.30;;;;;;;5.78;75.60;95767.69;5091442;28;20636;-79
2020/12/17 01:40:57;;;;;;;1.97;1.10;;;;;;;5.73;75.73;95764.63;5071367;28;20184;-78
2020/12/17 01:43:22;;;;;;;2.23;1.10;;;;;;;5.68;76.07;95754.66;5091863;28;20225;-78
2020/12/17 01:45:47;;;;;;;2.30;1.20;;;;;;;5.64;76.09;95765.28;5075580;28;20272;-78
2020/12/17 01:48:15;;;;;;;1.63;1.13;;;;;;;5.66;75.95;95758.31;5074828;28;20659;-78
2020/12/17 01:50:40;;;;;;;0.97;0.90;;;;;;;5.61;75.75;95768.94;5079517;28;20730;-78
2020/12/17 01:53:05;;;;;;;1.10;1.00;;;;;;;5.64;75.86;95773.03;5092338;28;20259;-79
2020/12/17 01:55:31;;;;;;;1.30;0.90;;;;;;;5.61;75.79;95773.25;5072965;28;20232;-78
2020/12/17 01:57:57;;;;;;;2.07;1.30;;;;;;;5.52;75.81;95769.59;5074918;28;20687;-79
2020/12/17 02:00:24;;;;;;;1.27;0.93;;;;;;;5.50;76.16;95770.66;5068222;28;20577;-79
2020/12/17 02:02:50;;;;;;;1.00;1.00;;;;;;;5.37;76.13;95774.09;5074616;28;20299;-79
2020/12/17 02:05:15;;;;;;;0.90;0.90;;;;;;;5.37;76.64;95786.97;5057455;28;20751;-79
2020/12/17 02:07:42;;;;;;;0.80;0.80;;;;;;;5.33;76.49;95775.25;5082322;28;20275;-78
2020/12/17 02:10:08;;;;;;;1.03;0.90;;;;;;;5.29;76.67;95776.38;5082737;28;20546;-78
2020/12/17 02:12:44;;;;;;;1.83;1.40;;;;;;;5.24;76.86;95781.06;5076590;28;20214;-78
2020/12/17 02:15:09;;;;;;;1.00;0.93;;;;;;;5.24;76.48;95788.78;5074581;28;20671;-79
2020/12/17 02:17:34;;;;;;;2.23;1.10;;;;;;;5.14;76.98;95779.25;5057744;28;20188;-79
2020/12/17 02:20:00;;;;;;;1.07;0.97;;;;;;;5.06;77.10;95782.38;5080784;28;20189;-78
2020/12/17 02:22:25;;;;;;;1.03;0.93;;;;;;;5.07;77.15;95789.97;5090989;28;20212;-77
2020/12/17 02:24:50;;;;;;;1.40;1.07;;;;;;;5.05;77.20;95786.69;5074188;28;20208;-78
2020/12/17 02:27:16;;;;;;;1.27;0.93;;;;;;;5.01;77.39;95792.97;5092447;28;20261;-79
2020/12/17 02:29:41;;;;;;;2.00;1.07;;;;;;;4.98;77.20;95788.06;5089190;28;20188;-78
2020/12/17 02:32:06;;;;;;;2.10;0.90;;;;;;;4.94;77.13;95788.34;5107580;28;20180;-78
2020/12/17 02:34:31;;;;;;;1.47;1.33;;;;;;;4.88;77.58;95784.47;5079330;28;20204;-78
2020/12/17 02:36:57;;;;;;;1.60;1.40;;;;;;;4.88;77.63;95783.66;5058953;28;20181;-78
2020/12/17 02:39:22;;;;;;;1.03;1.00;;;;;;;4.82;77.95;95785.72;5074380;28;20181;-78
2020/12/17 02:41:47;;;;;;;1.97;1.53;;;;;;;4.73;78.33;95782.97;5072616;28;20647;-78
2020/12/17 02:44:13;;;;;;;2.30;1.20;;;;;;;4.65;78.20;95792.97;5070542;28;20220;-78
2020/12/17 02:46:38;;;;;;;1.50;1.30;;;;;;;4.59;78.96;95795.94;5072855;28;20232;-79
2020/12/17 02:49:03;;;;;;;1.30;1.20;;;;;;;4.66;78.06;95786.88;5091734;28;20208;-78
2020/12/17 02:51:29;;;;;;;1.47;1.20;;;;;;;4.51;78.82;95788.78;5070554;28;20263;-79
2020/12/17 02:53:54;;;;;;;1.80;1.40;;;;;;;4.48;78.44;95788.97;5066688;28;20200;-78
2020/12/17 02:56:21;;;;;;;1.53;1.20;;;;;;;4.56;78.39;95778.97;5091669;28;20662;-76
2020/12/17 02:58:46;;;;;;;1.73;1.40;;;;;;;4.55;78.21;95783.31;5088502;28;20187;-79
2020/12/17 03:01:12;;;;;;;1.60;1.30;;;;;;;4.57;78.37;95785.75;5073701;28;20183;-78
2020/12/17 03:03:37;;;;;;;1.80;1.70;;;;;;;4.41;78.34;95782.59;5066104;28;20610;-78
2020/12/17 03:06:04;;;;;;;2.40;1.83;;;;;;;4.38;78.69;95786.19;5075697;28;20291;-78
2020/12/17 03:08:29;;;;;;;1.70;1.50;;;;;;;4.45;78.24;95786.63;5090300;28;20184;-79
2020/12/17 03:10:54;;;;;;;1.70;1.60;;;;;;;4.37;78.47;95789.69;5073636;28;20184;-78
2020/12/17 03:13:23;;;;;;;1.83;1.30;;;;;;;4.30;78.33;95782.50;5071777;28;20204;-78
2020/12/17 03:15:48;;;;;;;1.23;1.13;;;;;;;4.28;78.54;95784.38;5053613;28;20549;-78
2020/12/17 03:18:14;;;;;;;2.20;1.23;;;;;;;4.28;78.71;95780.03;5056551;28;20187;-78
2020/12/17 03:20:39;;;;;;;1.20;1.10;;;;;;;4.24;78.65;95773.44;5072559;28;20346;-78
2020/12/17 03:23:04;;;;;;;1.20;1.10;;;;;;;4.34;78.53;95783.97;5091495;28;20708;-78
2020/12/17 03:25:29;;;;;;;1.30;1.20;;;;;;;4.29;78.54;95791.16;5068936;28;20215;-79
2020/12/17 03:27:55;;;;;;;1.20;1.10;;;;;;;4.28;78.63;95792.06;5067864;28;20283;-79
2020/12/17 03:30:20;;;;;;;1.73;1.20;;;;;;;4.23;78.49;95793.19;5066401;28;20245;-78
2020/12/17 03:32:45;;;;;;;1.40;1.20;;;;;;;4.28;78.16;95794.66;5073098;28;20182;-78
2020/12/17 03:35:11;;;;;;;1.30;1.20;;;;;;;4.29;78.27;95799.69;5087170;28;20204;-79
2020/12/17 03:37:36;;;;;;;1.50;1.27;;;;;;;4.23;78.31;95793.19;5073399;28;20192;-78
2020/12/17 03:40:02;;;;;;;2.17;1.30;;;;;;;4.20;78.07;95800.28;5091041;28;20185;-78
2020/12/17 03:42:28;;;;;;;1.17;1.07;;;;;;;4.12;78.73;95799.97;5073104;28;20184;-78
2020/12/17 03:44:53;;;;;;;1.17;1.07;;;;;;;4.15;78.33;95794.63;5093948;28;20620;-78
2020/12/17 03:47:18;;;;;;;0.97;0.93;;;;;;;4.22;77.86;95795.88;5091381;28;20188;-78
2020/12/17 03:49:44;;;;;;;2.30;1.40;;;;;;;4.24;77.92;95791.44;5093913;28;20296;-78
2020/12/17 03:52:10;;;;;;;1.67;1.20;;;;;;;4.39;77.00;95787.03;5095899;28;20180;-78
2020/12/17 03:54:36;;;;;;;1.53;1.07;;;;;;;4.48;76.75;95794.09;5095002;28;20283;-78
2020/12/17 03:57:01;;;;;;;1.27;1.17;;;;;;;4.58;76.23;95787.41;5072673;28;20276;-78
2020/12/17 03:59:26;;;;;;;1.13;1.10;;;;;;;4.60;76.29;95792.47;5076863;28;20176;-78
2020/12/17 04:01:52;;;;;;;1.30;1.20;;;;;;;4.58;76.64;95786.59;5060478;28;20191;-78
2020/12/17 04:04:17;;;;;;;1.33;1.10;;;;;;;4.65;75.94;95786.06;5094929;28;20203;-78
2020/12/17 04:06:42;;;;;;;1.83;0.90;;;;;;;4.78;75.35;95781.72;5092090;28;20212;-79
2020/12/17 04:09:08;;;;;;;2.03;1.20;;;;;;;4.88;75.22;95787.06;5059216;28;20196;-78
2020/12/17 04:11:33;;;;;;;1.27;0.90;;;;;;;4.92;75.21;95790.22;5077265;28;20578;-77
2020/12/17 04:13:58;;;;;;;1.10;1.03;;;;;;;5.14;74.37;95792.94;5070021;28;20663;-78
2020/12/17 04:16:23;;;;;;;1.87;1.23;;;;;;;5.19;73.96;95784.88;5076667;28;20184;-78
2020/12/17 04:18:49;;;;;;;1.23;1.07;;;;;;;5.25;73.54;95780.13;5090260;28;20636;-78
2020/12/17 04:21:15;;;;;;;1.37;1.10;;;;;;;5.42;73.25;95781.50;5080653;28;20172;-78
2020/12/17 04:23:40;;;;;;;1.17;0.80;;;;;;;5.62;72.15;95782.63;5073305;28;20197;-77
2020/12/17 04:26:11;;;;;;;2.07;1.10;;;;;;;5.64;72.00;95789.31;5070841;28;20254;-79
2020/12/17 04:28:36;;;;;;;1.23;1.10;;;;;;;5.71;71.98;95794.03;5064591;28;20201;-78
2020/12/17 04:31:01;;;;;;;3.53;1.90;;;;;;;5.66;71.93;95791.78;5076434;28;20180;-78
2020/12/17 04:33:27;;;;;;;2.03;1.20;;;;;;;5.72;71.72;95796.47;5094478;28;20180;-78
2020/12/17 04:35:52;;;;;;;2.63;1.40;;;;;;;5.64;72.26;95788.47;5076593;28;20180;-78
2020/12/17 04:38:17;;;;;;;4.03;1.70;;;;;;;5.62;72.17;95785.19;5071165;28;20593;-78
2020/12/17 04:40:43;;;;;;;1.77;1.40;;;;;;;5.52;72.56;95786.81;5063956;28;20576;-78
2020/12/17 04:43:08;;;;;;;1.90;1.03;;;;;;;5.67;71.61;95789.09;5060035;28;20222;-78
2020/12/17 04:45:34;;;;;;;1.53;1.03;;;;;;;5.55;72.21;95802.03;5076302;28;20253;-78
2020/12/17 04:48:05;;;;;;;1.50;1.30;;;;;;;5.50;72.38;95796.41;5077447;28;20576;-78
2020/12/17 04:50:30;;;;;;;3.03;1.30;;;;;;;5.47;72.35;95801.75;5056500;28;20284;-78
2020/12/17 04:52:57;;;;;;;1.30;1.20;;;;;;;5.38;72.85;95798.09;5067273;28;20658;-78
2020/12/17 04:55:24;;;;;;;1.63;1.00;;;;;;;5.30;73.14;95801.25;5072067;28;20233;-78
2020/12/17 04:57:51;;;;;;;1.17;1.07;;;;;;;5.23;73.08;95805.16;5092888;28;20670;-77
2020/12/17 05:00:16;;;;;;;2.03;1.03;;;;;;;5.18;72.93;95807.22;5088451;28;20301;-78
2020/12/17 05:02:46;;;;;;;1.10;1.00;;;;;;;5.17;73.43;95813.31;5074580;28;20271;-78
2020/12/17 05:05:12;;;;;;;2.80;1.00;;;;;;;5.05;73.78;95819.34;5092548;28;20239;-78
2020/12/17 05:07:37;;;;;;;1.33;1.23;;;;;;;5.02;73.82;95822.09;5083892;28;20212;-78
2020/12/17 05:10:03;;;;;;;1.30;1.07;;;;;;;4.94;74.06;95825.22;5085925;28;20260;-79
2020/12/17 05:12:28;;;;;;;3.33;1.27;;;;;;;4.83;74.05;95820.81;5071326;28;20230;-79
2020/12/17 05:14:55;;;;;;;2.20;1.10;;;;;;;4.81;74.26;95819.28;5093568;28;20204;-79
2020/12/17 05:17:20;;;;;;;1.73;1.20;;;;;;;4.80;74.79;95815.88;5092137;28;20215;-76
2020/12/17 05:19:46;;;;;;;2.30;1.20;;;;;;;4.66;74.93;95817.75;5055169;28;20288;-79
2020/12/17 05:22:14;;;;;;;1.50;1.23;;;;;;;4.55;75.68;95818.50;5082431;28;20264;-78
2020/12/17 05:24:47;;;;;;;2.10;1.37;;;;;;;4.54;75.69;95817.66;5091194;28;20208;-78
2020/12/17 05:27:13;;;;;;;2.23;1.30;;;;;;;4.56;75.43;95822.72;5077007;28;20611;-78
2020/12/17 05:29:39;;;;;;;1.50;1.40;;;;;;;4.57;75.42;95821.78;5074836;28;20200;-78
2020/12/17 05:32:06;;;;;;;1.10;1.00;;;;;;;4.48;75.62;95817.25;5066622;28;20237;-78
2020/12/17 05:34:33;;;;;;;1.30;1.00;;;;;;;4.44;76.02;95826.94;5074289;28;20208;-78
2020/12/17 05:36:58;;;;;;;1.00;0.90;;;;;;;4.50;76.07;95833.41;5076557;28;20183;-78
2020/12/17 05:39:24;;;;;;;4.37;1.50;;;;;;;4.42;75.88;95835.69;5074904;28;20180;-78
2020/12/17 05:41:51;;;;;;;1.43;1.33;;;;;;;4.45;75.89;95830.34;5093140;28;20195;-79
2020/12/17 05:44:35;;;;;;;2.37;1.70;;;;;;;4.42;75.88;95840.84;5066971;28;20222;-78
2020/12/17 05:47:00;;;;;;;2.90;1.43;;;;;;;4.31;76.97;95833.00;5066602;28;20657;-78
2020/12/17 05:49:27;;;;;;;3.77;1.50;;;;;;;4.21;76.21;95846.47;5063776;28;20181;-78
2020/12/17 05:52:14;;;;;;;1.80;1.50;;;;;;;4.13;76.70;95851.28;5092978;28;20545;-78
2020/12/17 05:55:01;;;;;;;2.20;1.53;;;;;;;4.06;77.13;95851.78;5060537;28;20580;-78
2020/12/17 05:57:26;;;;;;;3.73;1.60;;;;;;;4.06;77.52;95855.16;5074310;28;20180;-78
2020/12/17 05:59:59;;;;;;;2.33;1.53;;;;;;;4.16;77.13;95858.81;5074780;28;20176;-78
2020/12/17 06:02:26;;;;;;;1.63;1.33;;;;;;;4.15;76.87;95862.31;5087826;28;20198;-78
2020/12/17 06:05:11;;;;;;;2.67;1.40;;;;;;;4.06;77.35;95860.31;5072742;28;20235;-77
2020/12/17 06:07:49;;;;;;;2.27;1.20;;;;;;;4.06;77.30;95865.44;5073027;28;20525;-78
2020/12/17 06:10:24;;;;;;;2.20;1.50;;;;;;;4.25;77.39;95862.53;5070826;28;20208;-78
2020/12/17 06:12:52;;;;;;;1.40;1.30;;;;;;;4.42;76.76;95867.38;5050257;28;20179;-78
2020/12/17 06:15:19;;;;;;;1.60;1.50;;;;;;;4.41;76.60;95867.44;5069331;28;20212;-78
2020/12/17 06:17:50;;;;;;;2.43;1.57;;;;;;;4.45;76.49;95874.88;5070839;28;20224;-78
2020/12/17 06:20:16;;;;;;;1.40;1.30;;;;;;;4.45;76.46;95879.19;5053032;28;20199;-79
2020/12/17 06:22:43;;;;;;;3.13;1.50;;;;;;;4.48;76.55;95878.97;5057710;28;20184;-78
2020/12/17 06:25:11;;;;;;;4.17;1.70;;;;;;;4.47;76.35;95879.91;5060731;28;20204;-79
2020/12/17 06:27:38;;;;;;;4.37;2.00;;;;;;;4.45;76.99;95881.75;5070459;28;20246;-78
2020/12/17 06:30:06;;;;;;;2.77;1.60;;;;;;;4.48;76.62;95895.22;5084202;28;20199;-78
2020/12/17 06:32:33;;;;;;;2.50;1.63;;;;;;;4.53;76.47;95895.75;5070236;28;20185;-77
2020/12/17 06:34:59;;;;;;;2.30;1.87;;;;;;;4.62;76.43;95899.47;5075731;28;20192;-78
2020/12/17 06:37:25;;;;;;;2.40;1.43;;;;;;;4.68;76.23;95909.34;5068460;28;20193;-77
2020/12/17 06:39:51;;;;;;;2.70;1.53;;;;;;;4.86;75.46;95909.88;5051098;28;20193;-78
2020/12/17 06:42:39;;;;;;;1.77;1.67;;;;;;;4.98;75.46;95911.59;5070125;28;20188;-78
2020/12/17 06:45:25;;;;;;;3.33;1.50;;;;;;;5.03;75.12;95912.09;5053888;28;20232;-78
2020/12/17 06:47:51;;;;;;;5.17;1.47;;;;;;;5.20;74.86;95912.69;5088180;28;20189;-78
2020/12/17 06:50:42;;;;;;;2.97;1.60;;;;;;;5.32;74.58;95919.56;5084014;28;20184;-79
2020/12/17 06:53:10;;;;;;;1.80;1.40;;;;;;;5.32;74.67;95920.41;5052699;28;20231;-78
2020/12/17 06:55:46;;;;;;;4.10;1.30;;;;;;;5.37;74.31;95923.47;5057124;28;20181;-79
2020/12/17 06:58:22;;;;;;;2.33;1.30;;;;;;;5.39;74.42;95926.78;5054993;28;20228;-78
2020/12/17 07:00:49;;;;;;;1.67;1.57;;;;;;;5.39;74.68;95936.25;5090167;28;20180;-78
2020/12/17 07:03:46;;;;;;;1.57;1.30;;;;;;;5.43;74.32;95931.72;5080443;28;20618;-79
2020/12/17 07:06:20;;;;;;;1.67;1.40;;;;;;;5.47;74.33;95927.97;5091972;28;20212;-78
2020/12/17 07:08:56;;;;;;;1.60;1.47;;;;;;;5.42;74.58;95938.59;5087364;28;20552;-78
2020/12/17 07:11:44;;;;;;;3.13;1.50;;;;;;;5.40;74.26;95940.47;5089989;28;20184;-78
2020/12/17 07:14:24;;;;;;;1.93;1.40;;;;;;;5.36;74.66;95945.00;5091708;28;20192;-78
2020/12/17 07:16:51;;;;;;;2.10;1.30;;;;;;;5.33;75.03;95955.53;5073527;28;20184;-77
2020/12/17 07:19:20;;;;;;;3.63;1.40;;;;;;;5.31;75.18;95954.81;5068588;28;20258;-78
2020/12/17 07:21:52;;;;;;;2.97;1.90;;;;;;;5.29;74.90;95956.66;5053477;28;20177;-78
2020/12/17 07:24:25;;;;;;;1.77;1.67;;;;;;;5.35;75.07;95963.97;5077789;28;20196;-77
2020/12/17 07:26:52;;;;;;;2.53;1.60;;;;;;;5.38;74.51;95971.47;5067637;28;20213;-78
2020/12/17 07:29:18;;;;;;;2.40;1.60;;;;;;;5.40;74.68;95969.63;5063703;28;20196;-79
2020/12/17 07:31:43;;;;;;;4.57;4.17;;;;;;;5.26;75.11;95972.31;5066247;28;20292;-79
2020/12/17 07:34:16;;;;;;;2.53;1.90;;;;;;;5.34;75.17;95977.78;5069469;28;20579;-80
2020/12/17 07:36:46;;;;;;;3.77;1.67;;;;;;;5.31;75.21;95978.00;5075522;28;20180;-79
2020/12/17 07:39:11;;;;;;;1.60;1.50;;;;;;;5.38;75.51;95978.38;5091252;28;20200;-79
2020/12/17 07:41:36;;;;;;;3.97;2.10;;;;;;;5.31;75.47;95972.84;5068032;28;20649;-80
2020/12/17 07:44:02;;;;;;;2.23;1.77;;;;;;;5.36;75.28;95982.81;5069776;28;20207;-78
2020/12/17 07:46:34;;;;;;;2.73;1.73;;;;;;;5.42;75.23;95987.53;5081310;28;20204;-79
2020/12/17 07:49:02;;;;;;;3.73;2.00;;;;;;;5.47;75.36;95988.03;5071572;28;20178;-79
2020/12/17 07:51:29;;;;;;;3.33;2.00;;;;;;;5.69;74.74;95992.53;5041676;28;20231;-78
2020/12/17 07:53:55;;;;;;;3.13;1.77;;;;;;;5.78;74.14;95993.66;5072772;28;20204;-76
2020/12/17 07:56:21;;;;;;;3.20;2.00;;;;;;;5.86;74.17;95992.19;5068859;28;20182;-77
2020/12/17 07:58:47;;;;;;;3.67;1.87;;;;;;;5.92;74.11;95994.38;5089368;28;20599;-77
2020/12/17 08:01:14;;;;;;;3.57;1.80;;;;;;;5.97;74.06;95992.28;5089690;28;20702;-78
2020/12/17 08:03:52;;;;;;;2.37;2.00;;;;;;;6.19;73.39;95995.94;5087101;28;20213;-78
2020/12/17 08:06:25;;;;;;;2.80;1.87;;;;;;;6.15;73.55;95997.88;5072686;28;20228;-77
2020/12/17 08:08:58;;;;;;;2.57;2.00;;;;;;;6.13;73.38;95998.94;5089416;28;20216;-78
2020/12/17 08:11:25;;;;;;;5.10;2.30;;;;;;;6.17;73.32;95997.75;5057365;28;20185;-77
2020/12/17 08:14:05;;;;;;;2.10;1.80;;;;;;;6.05;73.31;95996.06;5069350;28;20243;-78
2020/12/17 08:16:32;;;;;;;2.20;2.00;;;;;;;6.02;73.84;95993.72;5063224;28;20340;-77
2020/12/17 08:18:58;;;;;;;3.07;1.93;;;;;;;6.00;73.69;96001.53;5082156;28;20597;-79
2020/12/17 08:21:24;;;;;;;4.03;2.37;;;;;;;6.07;73.58;95999.34;5072546;28;20193;-79
2020/12/17 08:23:50;;;;;;;2.73;1.50;;;;;;;6.12;73.27;96007.59;5069283;28;20204;-79
2020/12/17 08:26:21;;;;;;;2.93;2.30;;;;;;;6.28;72.88;96009.91;5058523;28;20614;-78
2020/12/17 08:28:47;;;;;;;3.53;2.20;;;;;;;6.27;73.16;96010.81;5056996;28;20212;-78
2020/12/17 08:31:20;;;;;;;3.73;2.63;;;;;;;6.42;72.45;96007.97;5076172;28;20203;-78
2020/12/17 08:33:52;;;;;;;3.57;2.20;;;;;;;6.50;72.42;96010.81;5072230;28;20291;-79
2020/12/17 08:36:23;;;;;;;4.10;2.40;;;;;;;6.61;72.01;96019.53;5082144;28;20344;-77
2020/12/17 08:39:08;;;;;;;4.07;1.93;;;;;;;6.68;71.71;96023.31;5091271;28;20211;-79
2020/12/17 08:41:40;;;;;;;2.60;2.23;;;;;;;6.66;71.82;96023.44;5075336;28;20474;-79
2020/12/17 08:44:06;;;;;;;2.53;2.10;;;;;;;6.69;71.74;96015.47;5067370;28;20270;-80
2020/12/17 08:46:36;;;;;;;2.90;2.17;;;;;;;6.72;71.88;96029.91;5074881;28;20212;-77
2020/12/17 08:49:04;;;;;;;4.63;2.40;;;;;;;6.69;71.93;96030.13;5089480;28;20184;-78
2020/12/17 08:51:30;;;;;;;2.53;1.97;;;;;;;6.74;71.84;96028.03;5080490;28;20358;-78
2020/12/17 08:53:55;;;;;;;5.90;1.80;;;;;;;6.79;71.81;96034.50;5058470;28;20291;-78
2020/12/17 08:56:22;;;;;;;2.67;1.80;;;;;;;6.88;71.71;96033.00;5096784;28;20336;-78
2020/12/17 08:58:47;;;;;;;2.97;2.33;;;;;;;6.96;71.33;96043.59;5059598;28;20188;-78
2020/12/17 09:01:23;;;;;;;3.73;2.43;;;;;;;7.07;70.83;96043.63;5091018;28;20180;-79
2020/12/17 09:03:48;;;;;;;2.87;2.00;;;;;;;7.28;71.22;96046.38;5051973;28;20223;-78
2020/12/17 09:06:14;;;;;;;2.87;2.20;;;;;;;7.43;70.71;96043.56;5075367;28;20203;-78
2020/12/17 09:08:39;;;;;;;3.10;2.10;;;;;;;7.48;70.29;96042.25;5075159;28;20823;-78
2020/12/17 09:11:05;;;;;;;3.10;1.97;;;;;;;7.63;69.84;96048.88;5055150;28;20185;-79
2020/12/17 09:13:30;;;;;;;2.33;1.83;;;;;;;7.67;70.22;96060.59;5057683;28;20208;-79
2020/12/17 09:16:00;;;;;;;5.20;2.13;;;;;;;7.83;69.50;96055.06;5065367;28;20205;-79
2020/12/17 09:18:27;;;;;;;3.23;2.00;;;;;;;7.86;68.71;96052.28;5077141;28;20180;-80
2020/12/17 09:21:11;;;;;;;3.93;2.37;;;;;;;7.81;68.49;96049.22;5091295;28;20243;-78
2020/12/17 09:23:40;;;;;;;6.20;2.27;;;;;;;7.76;69.13;96050.50;5089772;28;20295;-80
2020/12/17 09:26:13;;;;;;;3.77;2.00;;;;;;;7.70;69.40;96043.22;5056296;28;20201;-80
2020/12/17 09:28:47;;;;;;;3.97;2.47;;;;;;;7.64;68.95;96052.25;5055149;28;20189;-80
2020/12/17 09:31:23;;;;;;;3.87;2.20;;;;;;;7.65;69.38;96057.31;5071611;28;20263;-79
2020/12/17 09:33:48;;;;;;;2.53;2.33;;;;;;;7.72;69.79;96062.84;5071088;28;20673;-79
2020/12/17 09:36:18;;;;;;;4.83;2.40;;;;;;;7.76;70.16;96072.00;5077922;28;20183;-79
2020/12/17 09:38:43;;;;;;;2.97;2.40;;;;;;;7.94;69.52;96068.00;5075307;28;20177;-77
2020/12/17 09:41:08;;;;;;;2.77;2.23;;;;;;;7.98;69.44;96055.66;5076998;28;20180;-78
2020/12/17 09:43:34;;;;;;;3.40;2.70;;;;;;;8.07;68.81;96067.88;5071726;28;20205;-78
2020/12/17 09:45:59;;;;;;;2.37;2.13;;;;;;;8.04;69.25;96069.88;5070142;28;20235;-79
2020/12/17 09:48:25;;;;;;;1.90;1.70;;;;;;;7.98;68.66;96076.34;5075381;28;20756;-78
2020/12/17 09:50:55;;;;;;;4.37;2.37;;;;;;;7.74;69.21;96079.06;5057614;28;20204;-79
2020/12/17 09:53:21;;;;;;;2.97;2.13;;;;;;;7.76;69.37;96074.59;5093310;28;20192;-79
2020/12/17 09:55:47;;;;;;;2.60;2.40;;;;;;;7.74;69.94;96081.63;5076963;28;20676;-78
2020/12/17 09:58:12;;;;;;;4.77;2.53;;;;;;;7.70;70.22;96084.59;5054469;28;20273;-79
2020/12/17 10:00:38;;;;;;;3.40;2.40;;;;;;;7.64;70.42;96091.03;5072041;28;20213;-79
2020/12/17 10:03:03;;;;;;;2.50;2.30;;;;;;;7.61;70.14;96094.69;5075755;28;20192;-80
2020/12/17 10:05:28;;;;;;;3.00;2.40;;;;;;;7.64;69.81;96093.63;5058924;28;20607;-79
2020/12/17 10:07:54;;;;;;;3.67;3.03;;;;;;;7.61;70.36;96092.09;5077233;28;20208;-79
2020/12/17 10:10:20;;;;;;;3.47;2.23;;;;;;;7.81;69.82;96094.94;5074689;28;20588;-79
2020/12/17 10:12:45;;;;;;;3.43;2.50;;;;;;;7.79;69.72;96092.47;5092547;28;20204;-79
2020/12/17 10:15:10;;;;;;;2.63;2.23;;;;;;;8.02;69.68;96095.84;5072007;28;20240;-79
2020/12/17 10:17:36;;;;;;;3.97;2.33;;;;;;;8.30;69.06;96098.88;5064932;28;20177;-79
2020/12/17 10:20:06;;;;;;;2.93;2.23;;;;;;;8.40;69.18;96095.50;5065194;28;20210;-78
2020/12/17 10:22:31;;;;;;;4.67;2.93;;;;;;;8.48;68.66;96097.47;5054119;28;20185;-78
2020/12/17 10:24:56;;;;;;;2.97;2.40;;;;;;;8.56;68.33;96102.84;5085470;28;20210;-78
2020/12/17 10:27:22;;;;;;;3.03;2.40;;;;;;;8.63;68.59;96123.91;5088188;28;20602;-78
2020/12/17 10:29:47;;;;;;;4.57;2.80;;;;;;;8.48;68.71;96125.94;5091611;28;20713;-79
2020/12/17 10:32:14;;;;;;;3.40;2.20;;;;;;;8.44;68.62;96121.97;5091975;28;20187;-78
2020/12/17 10:34:40;;;;;;;2.90;2.30;;;;;;;8.47;68.74;96126.88;5071683;28;20226;-78
2020/12/17 10:37:06;;;;;;;4.97;2.70;;;;;;;8.38;69.30;96132.78;5073946;28;20549;-79
2020/12/17 10:39:32;;;;;;;3.37;2.20;;;;;;;8.23;69.38;96133.00;5071993;28;20181;-76
2020/12/17 10:41:57;;;;;;;3.67;2.40;;;;;;;8.08;70.35;96143.72;5074614;28;20185;-78
2020/12/17 10:44:22;;;;;;;2.57;1.97;;;;;;;7.69;69.83;96138.06;5068440;28;20583;-77
2020/12/17 10:46:50;;;;;;;5.30;2.97;;;;;;;7.55;70.90;96136.50;5091778;28;20248;-78
2020/12/17 10:49:16;;;;;;;3.40;2.40;;;;;;;7.21;71.19;96133.00;5091966;28;20189;-77
2020/12/17 10:51:42;;;;;;;4.43;3.37;;;;;;;6.98;72.02;96139.84;5058261;28;20185;-77
2020/12/17 10:54:07;;;;;;;4.07;3.40;;;;;;;7.02;72.15;96141.28;5090882;28;20541;-76
2020/12/17 10:56:33;;;;;;;3.80;3.40;;;;;;;6.98;72.24;96144.16;5062114;28;20180;-78
2020/12/17 10:58:58;;;;;;;6.03;3.30;;;;;;;6.94;72.66;96143.56;5060108;28;20187;-77
2020/12/17 11:01:23;;;;;;;5.43;3.40;;;;;;;6.89;72.66;96148.28;5074764;28;20217;-78
2020/12/17 11:03:51;;;;;;;6.17;3.07;;;;;;;6.90;73.24;96149.91;5073341;28;20249;-79
2020/12/17 11:06:17;;;;;;;4.20;3.10;;;;;;;6.89;73.29;96156.00;5076887;28;20219;-78
2020/12/17 11:08:42;;;;;;;3.27;2.90;;;;;;;6.91;73.55;96154.13;5072297;28;20267;-78
2020/12/17 11:11:08;;;;;;;5.17;3.40;;;;;;;6.98;73.60;96149.34;5075277;28;20215;-78
2020/12/17 11:13:33;;;;;;;3.43;3.13;;;;;;;7.07;73.55;96143.53;5071551;28;20879;-78
2020/12/17 11:15:58;;;;;;;6.23;4.00;;;;;;;7.17;74.51;96147.09;5068886;28;20181;-79
2020/12/17 11:18:24;;;;;;;6.40;2.90;;;;;;;7.31;74.33;96143.47;5090023;28;20185;-77
2020/12/17 11:20:49;;;;;;;3.97;2.80;;;;;;;7.36;74.80;96139.63;5069789;28;20188;-78
2020/12/17 11:23:14;;;;;;;5.37;3.10;;;;;;;7.44;74.96;96135.66;5070836;28;20595;-76
2020/12/17 11:25:39;;;;;;;5.17;3.50;;;;;;;7.53;74.83;96140.13;5088413;28;20224;-76
2020/12/17 11:28:06;;;;;;;4.33;3.60;;;;;;;7.54;75.23;96146.94;5071483;28;20181;-78
2020/12/17 11:30:35;;;;;;;3.63;3.10;;;;;;;7.50;75.71;96146.34;5068896;28;20219;-78
2020/12/17 11:33:02;;;;;;;4.13;3.20;;;;;;;7.56;75.56;96145.06;5076729;28;20544;-77
2020/12/17 11:35:28;;;;;;;4.80;3.50;;;;;;;7.55;76.04;96148.59;5089892;28;20192;-76
2020/12/17 11:37:53;;;;;;;4.40;3.20;;;;;;;7.50;76.00;96150.69;5086846;28;20187;-76
2020/12/17 11:40:22;;;;;;;4.67;3.93;;;;;;;7.59;75.88;96156.00;5076430;28;20271;-76
2020/12/17 11:42:47;;;;;;;5.83;3.77;;;;;;;7.57;76.15;96152.69;5072961;28;20648;-78